sensor_id;sensor_type;location;lat;lon;timestamp;P1;durP1;ratioP1;P2;durP2;ratioP2
4636;SDS011;2331;48.806;9.140;2023-06-22T00:01:12;10.83;;;7.40;;
4636;SDS011;2331;48.806;9.140;2023-06-22T00:03:39;12.83;;;7.73;;
4636;SDS011;2331;48.806;9.140;2023-06-22T00:06:06;15.00;;;8.20;;
4636;SDS011;2331;48.806;9.140;2023-06-22T00:08:33;10.30;;;7.07;;
4636;SDS011;2331;48.806;9.140;2023-06-22T00:11:00;9.93;;;6.73;;
4636;SDS011;2331;48.806;9.140;2023-06-22T00:13:26;12.37;;;7.60;;
4636;SDS011;2331;48.806;9.140;2023-06-22T00:15:54;10.90;;;7.17;;
4636;SDS011;2331;48.806;9.140;2023-06-22T00:18:21;11.80;;;7.00;;
4636;SDS011;2331;48.806;9.140;2023-06-22T00:20:52;12.90;;;7.50;;
4636;SDS011;2331;48.806;9.140;2023-06-22T00:23:22;11.80;;;7.03;;
4636;SDS011;2331;48.806;9.140;2023-06-22T00:25:49;11.60;;;7.80;;
4636;SDS011;2331;48.806;9.140;2023-06-22T00:28:16;14.00;;;8.80;;
4636;SDS011;2331;48.806;9.140;2023-06-22T00:30:43;13.57;;;8.40;;
4636;SDS011;2331;48.806;9.140;2023-06-22T00:33:11;11.50;;;8.10;;
4636;SDS011;2331;48.806;9.140;2023-06-22T00:35:38;12.43;;;8.60;;
4636;SDS011;2331;48.806;9.140;2023-06-22T00:38:06;14.23;;;8.40;;
4636;SDS011;2331;48.806;9.140;2023-06-22T00:40:33;10.60;;;7.53;;
4636;SDS011;2331;48.806;9.140;2023-06-22T00:43:00;16.00;;;8.87;;
4636;SDS011;2331;48.806;9.140;2023-06-22T00:45:27;11.27;;;7.40;;
4636;SDS011;2331;48.806;9.140;2023-06-22T00:47:54;12.50;;;8.13;;
4636;SDS011;2331;48.806;9.140;2023-06-22T00:50:25;12.13;;;7.70;;
4636;SDS011;2331;48.806;9.140;2023-06-22T00:52:54;10.70;;;6.77;;
4636;SDS011;2331;48.806;9.140;2023-06-22T00:55:23;11.60;;;8.07;;
4636;SDS011;2331;48.806;9.140;2023-06-22T00:57:51;11.73;;;7.60;;
4636;SDS011;2331;48.806;9.140;2023-06-22T01:00:21;10.23;;;6.73;;
4636;SDS011;2331;48.806;9.140;2023-06-22T01:02:49;10.73;;;7.50;;
4636;SDS011;2331;48.806;9.140;2023-06-22T01:05:17;11.57;;;7.83;;
4636;SDS011;2331;48.806;9.140;2023-06-22T01:07:47;11.40;;;7.20;;
4636;SDS011;2331;48.806;9.140;2023-06-22T01:10:26;10.23;;;7.13;;
4636;SDS011;2331;48.806;9.140;2023-06-22T01:12:58;10.50;;;6.97;;
4636;SDS011;2331;48.806;9.140;2023-06-22T01:15:29;14.20;;;7.80;;
4636;SDS011;2331;48.806;9.140;2023-06-22T01:18:01;10.47;;;7.07;;
4636;SDS011;2331;48.806;9.140;2023-06-22T01:20:30;11.17;;;7.37;;
4636;SDS011;2331;48.806;9.140;2023-06-22T01:23:05;9.50;;;7.27;;
4636;SDS011;2331;48.806;9.140;2023-06-22T01:25:38;10.87;;;7.80;;
4636;SDS011;2331;48.806;9.140;2023-06-22T01:28:20;11.90;;;7.47;;
4636;SDS011;2331;48.806;9.140;2023-06-22T01:30:54;10.63;;;8.00;;
4636;SDS011;2331;48.806;9.140;2023-06-22T01:33:28;10.47;;;7.43;;
4636;SDS011;2331;48.806;9.140;2023-06-22T01:35:57;10.83;;;7.50;;
4636;SDS011;2331;48.806;9.140;2023-06-22T01:38:24;11.03;;;6.80;;
4636;SDS011;2331;48.806;9.140;2023-06-22T01:40:52;14.70;;;7.50;;
4636;SDS011;2331;48.806;9.140;2023-06-22T01:43:20;12.33;;;7.40;;
4636;SDS011;2331;48.806;9.140;2023-06-22T01:45:49;12.57;;;8.10;;
4636;SDS011;2331;48.806;9.140;2023-06-22T01:48:17;11.50;;;7.40;;
4636;SDS011;2331;48.806;9.140;2023-06-22T01:50:45;12.20;;;7.87;;
4636;SDS011;2331;48.806;9.140;2023-06-22T01:53:12;12.63;;;7.97;;
4636;SDS011;2331;48.806;9.140;2023-06-22T01:55:38;11.53;;;8.70;;
4636;SDS011;2331;48.806;9.140;2023-06-22T01:58:05;11.20;;;7.93;;
4636;SDS011;2331;48.806;9.140;2023-06-22T02:00:33;10.60;;;7.93;;
4636;SDS011;2331;48.806;9.140;2023-06-22T02:03:05;10.60;;;7.47;;
4636;SDS011;2331;48.806;9.140;2023-06-22T02:05:38;13.70;;;8.50;;
4636;SDS011;2331;48.806;9.140;2023-06-22T02:08:10;9.97;;;7.77;;
4636;SDS011;2331;48.806;9.140;2023-06-22T02:10:41;10.23;;;6.90;;
4636;SDS011;2331;48.806;9.140;2023-06-22T02:13:10;14.03;;;7.43;;
4636;SDS011;2331;48.806;9.140;2023-06-22T02:15:38;13.30;;;7.50;;
4636;SDS011;2331;48.806;9.140;2023-06-22T02:18:05;13.80;;;7.20;;
4636;SDS011;2331;48.806;9.140;2023-06-22T02:20:32;11.13;;;6.93;;
4636;SDS011;2331;48.806;9.140;2023-06-22T02:23:00;13.63;;;7.73;;
4636;SDS011;2331;48.806;9.140;2023-06-22T02:25:26;13.87;;;8.27;;
4636;SDS011;2331;48.806;9.140;2023-06-22T02:27:53;15.93;;;8.07;;
4636;SDS011;2331;48.806;9.140;2023-06-22T02:30:20;10.07;;;7.30;;
4636;SDS011;2331;48.806;9.140;2023-06-22T02:32:47;11.80;;;7.70;;
4636;SDS011;2331;48.806;9.140;2023-06-22T02:35:13;14.53;;;7.83;;
4636;SDS011;2331;48.806;9.140;2023-06-22T02:37:40;11.47;;;7.87;;
4636;SDS011;2331;48.806;9.140;2023-06-22T02:40:08;11.47;;;7.70;;
4636;SDS011;2331;48.806;9.140;2023-06-22T02:42:35;16.23;;;7.60;;
4636;SDS011;2331;48.806;9.140;2023-06-22T02:45:03;13.97;;;8.10;;
4636;SDS011;2331;48.806;9.140;2023-06-22T02:47:30;10.90;;;7.70;;
4636;SDS011;2331;48.806;9.140;2023-06-22T02:49:57;11.67;;;7.93;;
4636;SDS011;2331;48.806;9.140;2023-06-22T02:52:23;10.37;;;7.43;;
4636;SDS011;2331;48.806;9.140;2023-06-22T02:54:50;11.60;;;8.00;;
4636;SDS011;2331;48.806;9.140;2023-06-22T02:57:18;10.47;;;7.47;;
4636;SDS011;2331;48.806;9.140;2023-06-22T02:59:45;12.17;;;7.33;;
4636;SDS011;2331;48.806;9.140;2023-06-22T03:02:15;10.60;;;7.40;;
4636;SDS011;2331;48.806;9.140;2023-06-22T03:04:42;10.53;;;7.60;;
4636;SDS011;2331;48.806;9.140;2023-06-22T03:07:14;11.47;;;7.70;;
4636;SDS011;2331;48.806;9.140;2023-06-22T03:09:42;12.17;;;7.73;;
4636;SDS011;2331;48.806;9.140;2023-06-22T03:12:09;12.07;;;7.70;;
4636;SDS011;2331;48.806;9.140;2023-06-22T03:14:37;11.03;;;7.80;;
4636;SDS011;2331;48.806;9.140;2023-06-22T03:17:04;12.47;;;8.50;;
4636;SDS011;2331;48.806;9.140;2023-06-22T03:19:33;9.77;;;7.10;;
4636;SDS011;2331;48.806;9.140;2023-06-22T03:22:00;10.20;;;7.10;;
4636;SDS011;2331;48.806;9.140;2023-06-22T03:24:27;10.10;;;7.30;;
4636;SDS011;2331;48.806;9.140;2023-06-22T03:26:54;13.03;;;7.07;;
4636;SDS011;2331;48.806;9.140;2023-06-22T03:29:21;12.00;;;7.10;;
4636;SDS011;2331;48.806;9.140;2023-06-22T03:31:50;16.50;;;8.67;;
4636;SDS011;2331;48.806;9.140;2023-06-22T03:34:16;13.30;;;7.70;;
4636;SDS011;2331;48.806;9.140;2023-06-22T03:36:44;11.37;;;6.63;;
4636;SDS011;2331;48.806;9.140;2023-06-22T03:39:11;10.97;;;7.43;;
4636;SDS011;2331;48.806;9.140;2023-06-22T03:41:38;12.33;;;7.70;;
4636;SDS011;2331;48.806;9.140;2023-06-22T03:44:04;9.83;;;7.20;;
4636;SDS011;2331;48.806;9.140;2023-06-22T03:46:31;15.40;;;7.83;;
4636;SDS011;2331;48.806;9.140;2023-06-22T03:48:59;12.53;;;7.70;;
4636;SDS011;2331;48.806;9.140;2023-06-22T03:51:28;11.20;;;8.20;;
4636;SDS011;2331;48.806;9.140;2023-06-22T03:53:55;13.30;;;7.20;;
4636;SDS011;2331;48.806;9.140;2023-06-22T03:56:21;11.90;;;7.73;;
4636;SDS011;2331;48.806;9.140;2023-06-22T03:58:48;11.27;;;7.53;;
4636;SDS011;2331;48.806;9.140;2023-06-22T04:01:15;15.07;;;8.20;;
4636;SDS011;2331;48.806;9.140;2023-06-22T04:03:42;16.33;;;8.13;;
4636;SDS011;2331;48.806;9.140;2023-06-22T04:06:10;12.10;;;7.83;;
4636;SDS011;2331;48.806;9.140;2023-06-22T04:08:37;11.00;;;6.70;;
4636;SDS011;2331;48.806;9.140;2023-06-22T04:11:04;13.20;;;8.03;;
4636;SDS011;2331;48.806;9.140;2023-06-22T04:13:31;9.93;;;7.43;;
4636;SDS011;2331;48.806;9.140;2023-06-22T04:15:57;12.10;;;7.37;;
4636;SDS011;2331;48.806;9.140;2023-06-22T04:18:26;11.47;;;7.93;;
4636;SDS011;2331;48.806;9.140;2023-06-22T04:20:52;11.57;;;7.70;;
4636;SDS011;2331;48.806;9.140;2023-06-22T04:23:20;12.43;;;7.97;;
4636;SDS011;2331;48.806;9.140;2023-06-22T04:25:47;12.97;;;8.30;;
4636;SDS011;2331;48.806;9.140;2023-06-22T04:28:14;11.80;;;8.03;;
4636;SDS011;2331;48.806;9.140;2023-06-22T04:30:41;10.63;;;7.67;;
4636;SDS011;2331;48.806;9.140;2023-06-22T04:33:11;13.33;;;6.87;;
4636;SDS011;2331;48.806;9.140;2023-06-22T04:35:38;11.67;;;7.30;;
4636;SDS011;2331;48.806;9.140;2023-06-22T04:38:06;11.43;;;7.33;;
4636;SDS011;2331;48.806;9.140;2023-06-22T04:40:34;10.60;;;7.20;;
4636;SDS011;2331;48.806;9.140;2023-06-22T04:43:01;12.00;;;8.20;;
4636;SDS011;2331;48.806;9.140;2023-06-22T04:45:28;11.80;;;7.60;;
4636;SDS011;2331;48.806;9.140;2023-06-22T04:47:55;11.23;;;7.93;;
4636;SDS011;2331;48.806;9.140;2023-06-22T04:50:22;12.00;;;8.37;;
4636;SDS011;2331;48.806;9.140;2023-06-22T04:52:49;12.30;;;8.80;;
4636;SDS011;2331;48.806;9.140;2023-06-22T04:55:16;13.23;;;8.67;;
4636;SDS011;2331;48.806;9.140;2023-06-22T04:57:47;14.50;;;8.83;;
4636;SDS011;2331;48.806;9.140;2023-06-22T05:00:15;11.70;;;8.67;;
4636;SDS011;2331;48.806;9.140;2023-06-22T05:02:43;12.60;;;8.60;;
4636;SDS011;2331;48.806;9.140;2023-06-22T05:05:10;13.43;;;9.33;;
4636;SDS011;2331;48.806;9.140;2023-06-22T05:07:39;16.07;;;8.97;;
4636;SDS011;2331;48.806;9.140;2023-06-22T05:10:08;13.90;;;9.20;;
4636;SDS011;2331;48.806;9.140;2023-06-22T05:12:36;15.10;;;9.57;;
4636;SDS011;2331;48.806;9.140;2023-06-22T05:15:04;15.33;;;8.13;;
4636;SDS011;2331;48.806;9.140;2023-06-22T05:17:32;15.47;;;8.97;;
4636;SDS011;2331;48.806;9.140;2023-06-22T05:19:59;14.20;;;8.30;;
4636;SDS011;2331;48.806;9.140;2023-06-22T05:22:25;12.60;;;8.33;;
4636;SDS011;2331;48.806;9.140;2023-06-22T05:24:55;11.13;;;7.80;;
4636;SDS011;2331;48.806;9.140;2023-06-22T05:27:22;15.80;;;8.53;;
4636;SDS011;2331;48.806;9.140;2023-06-22T05:29:48;12.30;;;7.83;;
4636;SDS011;2331;48.806;9.140;2023-06-22T05:32:16;12.80;;;8.23;;
4636;SDS011;2331;48.806;9.140;2023-06-22T05:34:43;10.80;;;7.93;;
4636;SDS011;2331;48.806;9.140;2023-06-22T05:37:10;13.23;;;8.40;;
4636;SDS011;2331;48.806;9.140;2023-06-22T05:39:37;12.50;;;8.40;;
4636;SDS011;2331;48.806;9.140;2023-06-22T05:42:04;12.70;;;8.40;;
4636;SDS011;2331;48.806;9.140;2023-06-22T05:44:31;15.70;;;9.27;;
4636;SDS011;2331;48.806;9.140;2023-06-22T05:46:58;11.13;;;7.90;;
4636;SDS011;2331;48.806;9.140;2023-06-22T05:49:26;15.50;;;8.13;;
4636;SDS011;2331;48.806;9.140;2023-06-22T05:51:57;13.43;;;8.27;;
4636;SDS011;2331;48.806;9.140;2023-06-22T05:54:24;11.53;;;8.00;;
4636;SDS011;2331;48.806;9.140;2023-06-22T05:56:51;11.40;;;8.20;;
4636;SDS011;2331;48.806;9.140;2023-06-22T05:59:17;17.83;;;8.70;;
4636;SDS011;2331;48.806;9.140;2023-06-22T06:01:44;13.90;;;8.23;;
4636;SDS011;2331;48.806;9.140;2023-06-22T06:04:14;12.00;;;8.00;;
4636;SDS011;2331;48.806;9.140;2023-06-22T06:06:43;11.30;;;7.27;;
4636;SDS011;2331;48.806;9.140;2023-06-22T06:09:09;15.63;;;8.40;;
4636;SDS011;2331;48.806;9.140;2023-06-22T06:11:37;13.53;;;7.97;;
4636;SDS011;2331;48.806;9.140;2023-06-22T06:14:04;13.30;;;7.70;;
4636;SDS011;2331;48.806;9.140;2023-06-22T06:16:31;14.87;;;7.87;;
4636;SDS011;2331;48.806;9.140;2023-06-22T06:18:58;13.57;;;8.03;;
4636;SDS011;2331;48.806;9.140;2023-06-22T06:21:24;17.93;;;7.50;;
4636;SDS011;2331;48.806;9.140;2023-06-22T06:23:52;12.90;;;7.37;;
4636;SDS011;2331;48.806;9.140;2023-06-22T06:26:19;12.30;;;7.40;;
4636;SDS011;2331;48.806;9.140;2023-06-22T06:28:55;10.27;;;7.50;;
4636;SDS011;2331;48.806;9.140;2023-06-22T06:31:22;14.07;;;8.07;;
4636;SDS011;2331;48.806;9.140;2023-06-22T06:33:49;11.27;;;7.63;;
4636;SDS011;2331;48.806;9.140;2023-06-22T06:36:16;11.50;;;7.20;;
4636;SDS011;2331;48.806;9.140;2023-06-22T06:38:43;13.10;;;7.60;;
4636;SDS011;2331;48.806;9.140;2023-06-22T06:41:13;15.00;;;7.87;;
4636;SDS011;2331;48.806;9.140;2023-06-22T06:43:40;12.63;;;7.40;;
4636;SDS011;2331;48.806;9.140;2023-06-22T06:46:07;14.80;;;7.37;;
4636;SDS011;2331;48.806;9.140;2023-06-22T06:48:34;11.40;;;7.03;;
4636;SDS011;2331;48.806;9.140;2023-06-22T06:51:01;12.27;;;7.67;;
4636;SDS011;2331;48.806;9.140;2023-06-22T06:53:28;15.57;;;8.73;;
4636;SDS011;2331;48.806;9.140;2023-06-22T06:55:54;13.53;;;8.13;;
4636;SDS011;2331;48.806;9.140;2023-06-22T06:58:23;12.70;;;7.97;;
4636;SDS011;2331;48.806;9.140;2023-06-22T07:00:49;11.40;;;7.20;;
4636;SDS011;2331;48.806;9.140;2023-06-22T07:03:16;10.57;;;6.87;;
4636;SDS011;2331;48.806;9.140;2023-06-22T07:05:43;11.93;;;7.90;;
4636;SDS011;2331;48.806;9.140;2023-06-22T07:08:09;12.77;;;7.40;;
4636;SDS011;2331;48.806;9.140;2023-06-22T07:10:36;15.67;;;7.40;;
4636;SDS011;2331;48.806;9.140;2023-06-22T07:13:03;9.80;;;6.53;;
4636;SDS011;2331;48.806;9.140;2023-06-22T07:15:31;12.67;;;7.73;;
4636;SDS011;2331;48.806;9.140;2023-06-22T07:17:57;15.97;;;7.50;;
4636;SDS011;2331;48.806;9.140;2023-06-22T07:20:24;13.93;;;6.50;;
4636;SDS011;2331;48.806;9.140;2023-06-22T07:22:51;12.87;;;6.80;;
4636;SDS011;2331;48.806;9.140;2023-06-22T07:25:17;13.70;;;6.83;;
4636;SDS011;2331;48.806;9.140;2023-06-22T07:27:44;12.60;;;6.70;;
4636;SDS011;2331;48.806;9.140;2023-06-22T07:30:13;9.87;;;6.67;;
4636;SDS011;2331;48.806;9.140;2023-06-22T07:32:41;10.77;;;6.00;;
4636;SDS011;2331;48.806;9.140;2023-06-22T07:35:08;11.40;;;6.20;;
4636;SDS011;2331;48.806;9.140;2023-06-22T07:37:35;10.87;;;5.83;;
4636;SDS011;2331;48.806;9.140;2023-06-22T07:40:02;9.87;;;5.63;;
4636;SDS011;2331;48.806;9.140;2023-06-22T07:42:31;9.20;;;6.20;;
4636;SDS011;2331;48.806;9.140;2023-06-22T07:44:58;14.87;;;6.43;;
4636;SDS011;2331;48.806;9.140;2023-06-22T07:47:25;12.77;;;7.37;;
4636;SDS011;2331;48.806;9.140;2023-06-22T07:49:54;11.50;;;6.47;;
4636;SDS011;2331;48.806;9.140;2023-06-22T07:52:22;12.40;;;6.83;;
4636;SDS011;2331;48.806;9.140;2023-06-22T07:54:50;8.70;;;5.90;;
4636;SDS011;2331;48.806;9.140;2023-06-22T07:57:16;11.60;;;6.90;;
4636;SDS011;2331;48.806;9.140;2023-06-22T07:59:43;9.20;;;6.07;;
4636;SDS011;2331;48.806;9.140;2023-06-22T08:02:10;10.70;;;6.40;;
4636;SDS011;2331;48.806;9.140;2023-06-22T08:04:36;12.10;;;6.50;;
4636;SDS011;2331;48.806;9.140;2023-06-22T08:07:05;9.13;;;6.07;;
4636;SDS011;2331;48.806;9.140;2023-06-22T08:09:32;11.40;;;6.20;;
4636;SDS011;2331;48.806;9.140;2023-06-22T08:11:59;10.63;;;6.03;;
4636;SDS011;2331;48.806;9.140;2023-06-22T08:14:26;10.83;;;6.00;;
4636;SDS011;2331;48.806;9.140;2023-06-22T08:16:53;11.53;;;6.47;;
4636;SDS011;2331;48.806;9.140;2023-06-22T08:19:20;10.60;;;6.50;;
4636;SDS011;2331;48.806;9.140;2023-06-22T08:21:46;10.33;;;6.13;;
4636;SDS011;2331;48.806;9.140;2023-06-22T08:24:14;11.67;;;6.90;;
4636;SDS011;2331;48.806;9.140;2023-06-22T08:26:41;9.60;;;5.90;;
4636;SDS011;2331;48.806;9.140;2023-06-22T08:29:08;11.60;;;6.13;;
4636;SDS011;2331;48.806;9.140;2023-06-22T08:31:35;10.10;;;5.33;;
4636;SDS011;2331;48.806;9.140;2023-06-22T08:34:02;16.13;;;6.07;;
4636;SDS011;2331;48.806;9.140;2023-06-22T08:36:29;9.03;;;5.43;;
4636;SDS011;2331;48.806;9.140;2023-06-22T08:38:57;11.27;;;6.00;;
4636;SDS011;2331;48.806;9.140;2023-06-22T08:41:27;11.83;;;6.00;;
4636;SDS011;2331;48.806;9.140;2023-06-22T08:43:54;14.43;;;5.80;;
4636;SDS011;2331;48.806;9.140;2023-06-22T08:46:21;13.40;;;5.30;;
4636;SDS011;2331;48.806;9.140;2023-06-22T08:48:55;10.60;;;5.57;;
4636;SDS011;2331;48.806;9.140;2023-06-22T08:51:22;9.50;;;5.67;;
4636;SDS011;2331;48.806;9.140;2023-06-22T08:53:49;10.27;;;5.47;;
4636;SDS011;2331;48.806;9.140;2023-06-22T08:56:16;12.47;;;5.77;;
4636;SDS011;2331;48.806;9.140;2023-06-22T08:58:44;9.97;;;5.30;;
4636;SDS011;2331;48.806;9.140;2023-06-22T09:01:10;12.33;;;5.20;;
4636;SDS011;2331;48.806;9.140;2023-06-22T09:03:37;13.70;;;5.53;;
4636;SDS011;2331;48.806;9.140;2023-06-22T09:06:04;8.00;;;5.20;;
4636;SDS011;2331;48.806;9.140;2023-06-22T09:08:31;11.67;;;5.83;;
4636;SDS011;2331;48.806;9.140;2023-06-22T09:10:58;8.90;;;5.50;;
4636;SDS011;2331;48.806;9.140;2023-06-22T09:15:58;9.70;;;5.20;;
4636;SDS011;2331;48.806;9.140;2023-06-22T09:18:24;12.83;;;5.47;;
4636;SDS011;2331;48.806;9.140;2023-06-22T09:20:51;10.17;;;5.63;;
4636;SDS011;2331;48.806;9.140;2023-06-22T09:23:18;8.10;;;5.30;;
4636;SDS011;2331;48.806;9.140;2023-06-22T09:25:44;10.73;;;5.87;;
4636;SDS011;2331;48.806;9.140;2023-06-22T09:28:12;12.40;;;5.37;;
4636;SDS011;2331;48.806;9.140;2023-06-22T09:30:42;10.63;;;5.23;;
4636;SDS011;2331;48.806;9.140;2023-06-22T09:33:10;10.67;;;5.33;;
4636;SDS011;2331;48.806;9.140;2023-06-22T09:35:37;13.20;;;5.40;;
4636;SDS011;2331;48.806;9.140;2023-06-22T09:38:04;14.17;;;6.07;;
4636;SDS011;2331;48.806;9.140;2023-06-22T09:40:31;11.90;;;5.90;;
4636;SDS011;2331;48.806;9.140;2023-06-22T09:43:00;10.47;;;5.50;;
4636;SDS011;2331;48.806;9.140;2023-06-22T09:45:27;9.43;;;5.33;;
4636;SDS011;2331;48.806;9.140;2023-06-22T09:47:53;13.10;;;5.20;;
4636;SDS011;2331;48.806;9.140;2023-06-22T09:50:22;13.40;;;5.67;;
4636;SDS011;2331;48.806;9.140;2023-06-22T09:52:48;9.27;;;4.80;;
4636;SDS011;2331;48.806;9.140;2023-06-22T09:55:20;9.73;;;5.70;;
4636;SDS011;2331;48.806;9.140;2023-06-22T09:57:47;11.67;;;5.77;;
4636;SDS011;2331;48.806;9.140;2023-06-22T10:00:15;13.23;;;5.27;;
4636;SDS011;2331;48.806;9.140;2023-06-22T10:02:44;12.43;;;5.10;;
4636;SDS011;2331;48.806;9.140;2023-06-22T10:05:11;9.83;;;5.47;;
4636;SDS011;2331;48.806;9.140;2023-06-22T10:07:39;14.23;;;5.40;;
4636;SDS011;2331;48.806;9.140;2023-06-22T10:10:08;9.33;;;5.30;;
4636;SDS011;2331;48.806;9.140;2023-06-22T10:12:35;10.70;;;5.60;;
4636;SDS011;2331;48.806;9.140;2023-06-22T10:15:02;11.40;;;5.20;;
4636;SDS011;2331;48.806;9.140;2023-06-22T10:17:29;18.73;;;6.37;;
4636;SDS011;2331;48.806;9.140;2023-06-22T10:19:56;12.27;;;6.10;;
4636;SDS011;2331;48.806;9.140;2023-06-22T10:22:22;14.00;;;5.73;;
4636;SDS011;2331;48.806;9.140;2023-06-22T10:24:50;12.97;;;5.40;;
4636;SDS011;2331;48.806;9.140;2023-06-22T10:27:17;15.27;;;5.37;;
4636;SDS011;2331;48.806;9.140;2023-06-22T10:29:44;12.50;;;5.60;;
4636;SDS011;2331;48.806;9.140;2023-06-22T10:32:10;10.90;;;5.40;;
4636;SDS011;2331;48.806;9.140;2023-06-22T10:34:37;14.37;;;6.33;;
4636;SDS011;2331;48.806;9.140;2023-06-22T10:37:04;10.27;;;5.77;;
4636;SDS011;2331;48.806;9.140;2023-06-22T10:39:31;11.17;;;5.13;;
4636;SDS011;2331;48.806;9.140;2023-06-22T10:41:59;14.17;;;5.60;;
4636;SDS011;2331;48.806;9.140;2023-06-22T10:44:26;15.77;;;5.90;;
4636;SDS011;2331;48.806;9.140;2023-06-22T10:46:53;14.07;;;5.77;;
4636;SDS011;2331;48.806;9.140;2023-06-22T10:49:19;12.10;;;5.87;;
4636;SDS011;2331;48.806;9.140;2023-06-22T10:51:46;14.20;;;6.00;;
4636;SDS011;2331;48.806;9.140;2023-06-22T10:54:13;11.43;;;5.90;;
4636;SDS011;2331;48.806;9.140;2023-06-22T10:56:42;12.33;;;5.30;;
4636;SDS011;2331;48.806;9.140;2023-06-22T10:59:10;10.63;;;5.90;;
4636;SDS011;2331;48.806;9.140;2023-06-22T11:01:36;11.73;;;5.20;;
4636;SDS011;2331;48.806;9.140;2023-06-22T11:04:03;13.97;;;6.40;;
4636;SDS011;2331;48.806;9.140;2023-06-22T11:06:30;12.47;;;5.60;;
4636;SDS011;2331;48.806;9.140;2023-06-22T11:08:57;12.60;;;6.43;;
4636;SDS011;2331;48.806;9.140;2023-06-22T11:11:24;14.83;;;6.00;;
4636;SDS011;2331;48.806;9.140;2023-06-22T11:13:52;14.17;;;6.00;;
4636;SDS011;2331;48.806;9.140;2023-06-22T11:16:20;12.80;;;5.50;;
4636;SDS011;2331;48.806;9.140;2023-06-22T11:18:46;12.00;;;5.10;;
4636;SDS011;2331;48.806;9.140;2023-06-22T11:21:13;17.80;;;6.20;;
4636;SDS011;2331;48.806;9.140;2023-06-22T11:23:41;13.30;;;6.23;;
4636;SDS011;2331;48.806;9.140;2023-06-22T11:26:08;12.20;;;5.43;;
4636;SDS011;2331;48.806;9.140;2023-06-22T11:28:35;12.43;;;6.27;;
4636;SDS011;2331;48.806;9.140;2023-06-22T11:31:01;20.63;;;6.83;;
4636;SDS011;2331;48.806;9.140;2023-06-22T11:33:30;11.57;;;6.10;;
4636;SDS011;2331;48.806;9.140;2023-06-22T11:35:56;11.40;;;5.03;;
4636;SDS011;2331;48.806;9.140;2023-06-22T11:38:23;15.27;;;6.17;;
4636;SDS011;2331;48.806;9.140;2023-06-22T11:40:50;11.40;;;5.60;;
4636;SDS011;2331;48.806;9.140;2023-06-22T11:43:16;19.03;;;6.23;;
4636;SDS011;2331;48.806;9.140;2023-06-22T11:45:43;11.80;;;5.23;;
4636;SDS011;2331;48.806;9.140;2023-06-22T11:48:10;13.00;;;5.83;;
4636;SDS011;2331;48.806;9.140;2023-06-22T11:50:38;18.13;;;6.40;;
4636;SDS011;2331;48.806;9.140;2023-06-22T11:53:04;12.60;;;6.13;;
4636;SDS011;2331;48.806;9.140;2023-06-22T11:55:31;15.60;;;5.60;;
4636;SDS011;2331;48.806;9.140;2023-06-22T11:57:58;13.50;;;5.97;;
4636;SDS011;2331;48.806;9.140;2023-06-22T12:00:28;12.43;;;5.73;;
4636;SDS011;2331;48.806;9.140;2023-06-22T12:02:55;11.80;;;5.70;;
4636;SDS011;2331;48.806;9.140;2023-06-22T12:05:22;17.23;;;5.87;;
4636;SDS011;2331;48.806;9.140;2023-06-22T12:07:52;14.10;;;5.87;;
4636;SDS011;2331;48.806;9.140;2023-06-22T12:10:20;12.63;;;5.57;;
4636;SDS011;2331;48.806;9.140;2023-06-22T12:12:46;14.83;;;5.90;;
4636;SDS011;2331;48.806;9.140;2023-06-22T12:15:13;16.33;;;6.57;;
4636;SDS011;2331;48.806;9.140;2023-06-22T12:17:40;12.77;;;6.53;;
4636;SDS011;2331;48.806;9.140;2023-06-22T12:20:07;14.23;;;6.27;;
4636;SDS011;2331;48.806;9.140;2023-06-22T12:22:35;13.53;;;5.80;;
4636;SDS011;2331;48.806;9.140;2023-06-22T12:25:04;15.03;;;5.80;;
4636;SDS011;2331;48.806;9.140;2023-06-22T12:27:32;10.17;;;5.87;;
4636;SDS011;2331;48.806;9.140;2023-06-22T12:29:58;15.93;;;5.97;;
4636;SDS011;2331;48.806;9.140;2023-06-22T12:32:25;16.30;;;5.30;;
4636;SDS011;2331;48.806;9.140;2023-06-22T12:34:52;16.57;;;6.33;;
4636;SDS011;2331;48.806;9.140;2023-06-22T12:37:18;12.53;;;5.43;;
4636;SDS011;2331;48.806;9.140;2023-06-22T12:39:45;12.33;;;5.43;;
4636;SDS011;2331;48.806;9.140;2023-06-22T12:42:13;13.60;;;5.40;;
4636;SDS011;2331;48.806;9.140;2023-06-22T12:44:41;16.70;;;6.50;;
4636;SDS011;2331;48.806;9.140;2023-06-22T12:47:08;13.13;;;5.70;;
4636;SDS011;2331;48.806;9.140;2023-06-22T12:49:35;13.20;;;5.50;;
4636;SDS011;2331;48.806;9.140;2023-06-22T12:52:02;15.70;;;5.70;;
4636;SDS011;2331;48.806;9.140;2023-06-22T12:54:29;23.80;;;5.87;;
4636;SDS011;2331;48.806;9.140;2023-06-22T12:56:56;14.20;;;5.83;;
4636;SDS011;2331;48.806;9.140;2023-06-22T12:59:24;13.67;;;6.03;;
4636;SDS011;2331;48.806;9.140;2023-06-22T13:01:50;16.80;;;6.03;;
4636;SDS011;2331;48.806;9.140;2023-06-22T13:04:17;13.20;;;5.43;;
4636;SDS011;2331;48.806;9.140;2023-06-22T13:06:44;13.90;;;6.10;;
4636;SDS011;2331;48.806;9.140;2023-06-22T13:09:12;17.10;;;6.53;;
4636;SDS011;2331;48.806;9.140;2023-06-22T13:11:40;14.93;;;6.30;;
4636;SDS011;2331;48.806;9.140;2023-06-22T13:14:07;14.87;;;5.70;;
4636;SDS011;2331;48.806;9.140;2023-06-22T13:16:35;12.57;;;5.43;;
4636;SDS011;2331;48.806;9.140;2023-06-22T13:19:01;12.43;;;5.70;;
4636;SDS011;2331;48.806;9.140;2023-06-22T13:21:29;16.67;;;6.33;;
4636;SDS011;2331;48.806;9.140;2023-06-22T13:23:56;11.07;;;6.17;;
4636;SDS011;2331;48.806;9.140;2023-06-22T13:26:23;19.00;;;6.47;;
4636;SDS011;2331;48.806;9.140;2023-06-22T13:28:50;12.90;;;5.60;;
4636;SDS011;2331;48.806;9.140;2023-06-22T13:31:17;13.60;;;6.50;;
4636;SDS011;2331;48.806;9.140;2023-06-22T13:33:45;15.73;;;6.03;;
4636;SDS011;2331;48.806;9.140;2023-06-22T13:36:12;13.47;;;6.57;;
4636;SDS011;2331;48.806;9.140;2023-06-22T13:38:39;15.70;;;6.87;;
4636;SDS011;2331;48.806;9.140;2023-06-22T13:41:06;9.43;;;5.67;;
4636;SDS011;2331;48.806;9.140;2023-06-22T13:43:32;12.90;;;6.50;;
4636;SDS011;2331;48.806;9.140;2023-06-22T13:45:59;10.83;;;6.20;;
4636;SDS011;2331;48.806;9.140;2023-06-22T13:48:26;14.20;;;6.53;;
4636;SDS011;2331;48.806;9.140;2023-06-22T13:50:55;11.27;;;5.77;;
4636;SDS011;2331;48.806;9.140;2023-06-22T13:53:21;17.00;;;5.70;;
4636;SDS011;2331;48.806;9.140;2023-06-22T13:55:50;12.73;;;6.20;;
4636;SDS011;2331;48.806;9.140;2023-06-22T13:58:17;15.83;;;5.83;;
4636;SDS011;2331;48.806;9.140;2023-06-22T14:00:44;11.97;;;5.80;;
4636;SDS011;2331;48.806;9.140;2023-06-22T14:03:13;16.60;;;6.73;;
4636;SDS011;2331;48.806;9.140;2023-06-22T14:05:41;14.67;;;5.90;;
4636;SDS011;2331;48.806;9.140;2023-06-22T14:08:09;14.50;;;5.70;;
4636;SDS011;2331;48.806;9.140;2023-06-22T14:10:35;14.00;;;5.43;;
4636;SDS011;2331;48.806;9.140;2023-06-22T14:13:02;11.30;;;5.23;;
4636;SDS011;2331;48.806;9.140;2023-06-22T14:15:30;10.33;;;5.30;;
4636;SDS011;2331;48.806;9.140;2023-06-22T14:17:57;10.30;;;5.17;;
4636;SDS011;2331;48.806;9.140;2023-06-22T14:20:24;12.90;;;5.97;;
4636;SDS011;2331;48.806;9.140;2023-06-22T14:22:50;11.73;;;5.60;;
4636;SDS011;2331;48.806;9.140;2023-06-22T14:25:18;15.43;;;6.43;;
4636;SDS011;2331;48.806;9.140;2023-06-22T14:27:45;12.80;;;5.67;;
4636;SDS011;2331;48.806;9.140;2023-06-22T14:30:12;11.13;;;5.47;;
4636;SDS011;2331;48.806;9.140;2023-06-22T14:32:38;14.13;;;5.63;;
4636;SDS011;2331;48.806;9.140;2023-06-22T14:35:05;13.37;;;5.57;;
4636;SDS011;2331;48.806;9.140;2023-06-22T14:37:32;14.50;;;5.77;;
4636;SDS011;2331;48.806;9.140;2023-06-22T14:39:59;14.23;;;5.73;;
4636;SDS011;2331;48.806;9.140;2023-06-22T14:42:27;14.23;;;5.50;;
4636;SDS011;2331;48.806;9.140;2023-06-22T14:44:55;17.60;;;6.13;;
4636;SDS011;2331;48.806;9.140;2023-06-22T14:47:21;14.63;;;4.80;;
4636;SDS011;2331;48.806;9.140;2023-06-22T14:49:48;13.80;;;5.60;;
4636;SDS011;2331;48.806;9.140;2023-06-22T14:52:15;9.63;;;5.03;;
4636;SDS011;2331;48.806;9.140;2023-06-22T14:54:41;14.20;;;5.10;;
4636;SDS011;2331;48.806;9.140;2023-06-22T14:57:08;14.17;;;4.77;;
4636;SDS011;2331;48.806;9.140;2023-06-22T14:59:36;10.17;;;3.87;;
4636;SDS011;2331;48.806;9.140;2023-06-22T15:02:03;12.73;;;3.53;;
4636;SDS011;2331;48.806;9.140;2023-06-22T15:04:29;12.20;;;3.23;;
4636;SDS011;2331;48.806;9.140;2023-06-22T15:06:59;18.53;;;4.10;;